<?xml version="1.0" encoding="UTF-8" standalone="no" ?>
<gpx xmlns="http://www.topografix.com/GPX/1/1" xmlns:xsi="http://www.w3.org/2001/XMLSchema-instance" xsi:schemaLocation="http://www.topografix.com/GPX/1/1 http://www.topografix.com/GPX/1/1/gpx.xsd" version="1.1" creator="VisuGPX - https://www.visugpx.com">
  <metadata>
    <name>cassou 4 décemb re 2014</name>
    <desc><![CDATA[randonée jeudi 4 déc cassoui]]></desc>
  </metadata>
  <wpt lat="44.22988" lon="0.71188">
    <ele>161</ele>
    <name><![CDATA[Cassou]]></name>
    <desc><![CDATA[Cassou]]></desc>
    <cmt><![CDATA[Cassou]]></cmt>
  </wpt>
  <wpt lat="44.2272" lon="0.71909">
    <ele>154</ele>
    <name><![CDATA[Latuque]]></name>
    <desc><![CDATA[Latuque]]></desc>
    <cmt><![CDATA[Latuque]]></cmt>
  </wpt>
  <wpt lat="44.24018" lon="0.73748">
    <ele>157</ele>
    <name><![CDATA[Le Breil]]></name>
    <desc><![CDATA[Le Breil]]></desc>
    <cmt><![CDATA[Le Breil]]></cmt>
  </wpt>
  <wpt lat="44.23634" lon="0.71669">
    <ele>162</ele>
    <name><![CDATA[Mérats]]></name>
    <desc><![CDATA[Mérats]]></desc>
    <cmt><![CDATA[Mérats]]></cmt>
  </wpt>
  <wpt lat="44.22645" lon="0.72999">
    <ele>178</ele>
    <name><![CDATA[Tabart]]></name>
    <desc><![CDATA[Tabart]]></desc>
    <cmt><![CDATA[Tabart]]></cmt>
  </wpt>
  <trk>
    <name><![CDATA[ACTIVE LOG 001]]></name>
    <trkseg>
      <trkpt lat="44.23" lon="0.71248">
        <ele>139.0478516</ele>
        <time>2014-12-04T13:09:05Z</time>
      </trkpt>
      <trkpt lat="44.23" lon="0.71249">
        <ele>149.6223145</ele>
        <time>2014-12-04T13:09:31Z</time>
      </trkpt>
      <trkpt lat="44.22999" lon="0.71251">
        <ele>149.6223145</ele>
        <time>2014-12-04T13:09:58Z</time>
      </trkpt>
      <trkpt lat="44.23005" lon="0.71242">
        <ele>148.6610107</ele>
        <time>2014-12-04T13:10:15Z</time>
      </trkpt>
      <trkpt lat="44.23004" lon="0.71235">
        <ele>149.6223145</ele>
        <time>2014-12-04T13:10:56Z</time>
      </trkpt>
      <trkpt lat="44.23002" lon="0.71231">
        <ele>149.6223145</ele>
        <time>2014-12-04T13:10:59Z</time>
      </trkpt>
      <trkpt lat="44.22998" lon="0.71235">
        <ele>149.6223145</ele>
        <time>2014-12-04T13:11:03Z</time>
      </trkpt>
      <trkpt lat="44.22985" lon="0.71268">
        <ele>148.6610107</ele>
        <time>2014-12-04T13:11:25Z</time>
      </trkpt>
      <trkpt lat="44.22989" lon="0.71303">
        <ele>146.2578125</ele>
        <time>2014-12-04T13:11:47Z</time>
      </trkpt>
      <trkpt lat="44.22992" lon="0.71322">
        <ele>142.8930664</ele>
        <time>2014-12-04T13:11:59Z</time>
      </trkpt>
      <trkpt lat="44.22996" lon="0.71339">
        <ele>140.0091553</ele>
        <time>2014-12-04T13:12:11Z</time>
      </trkpt>
      <trkpt lat="44.22998" lon="0.71352">
        <ele>139.0478516</ele>
        <time>2014-12-04T13:12:20Z</time>
      </trkpt>
      <trkpt lat="44.22999" lon="0.71361">
        <ele>139.0478516</ele>
        <time>2014-12-04T13:12:26Z</time>
      </trkpt>
      <trkpt lat="44.23" lon="0.71371">
        <ele>140.4898682</ele>
        <time>2014-12-04T13:12:32Z</time>
      </trkpt>
      <trkpt lat="44.23006" lon="0.71393">
        <ele>140.0091553</ele>
        <time>2014-12-04T13:12:46Z</time>
      </trkpt>
      <trkpt lat="44.23009" lon="0.71417">
        <ele>138.0865479</ele>
        <time>2014-12-04T13:13:02Z</time>
      </trkpt>
      <trkpt lat="44.23013" lon="0.71441">
        <ele>134.2412109</ele>
        <time>2014-12-04T13:13:18Z</time>
      </trkpt>
      <trkpt lat="44.23013" lon="0.71448">
        <ele>134.2412109</ele>
        <time>2014-12-04T13:13:22Z</time>
      </trkpt>
      <trkpt lat="44.23014" lon="0.71452">
        <ele>134.2412109</ele>
        <time>2014-12-04T13:13:24Z</time>
      </trkpt>
      <trkpt lat="44.23013" lon="0.71471">
        <ele>131.8378906</ele>
        <time>2014-12-04T13:13:36Z</time>
      </trkpt>
      <trkpt lat="44.23013" lon="0.71473">
        <ele>131.3572998</ele>
        <time>2014-12-04T13:13:37Z</time>
      </trkpt>
      <trkpt lat="44.23006" lon="0.71505">
        <ele>135.2025146</ele>
        <time>2014-12-04T13:13:54Z</time>
      </trkpt>
      <trkpt lat="44.23003" lon="0.71529">
        <ele>135.2025146</ele>
        <time>2014-12-04T13:14:09Z</time>
      </trkpt>
      <trkpt lat="44.23" lon="0.71552">
        <ele>138.5672607</ele>
        <time>2014-12-04T13:14:22Z</time>
      </trkpt>
      <trkpt lat="44.23" lon="0.71555">
        <ele>138.5672607</ele>
        <time>2014-12-04T13:14:24Z</time>
      </trkpt>
      <trkpt lat="44.22998" lon="0.71567">
        <ele>138.0865479</ele>
        <time>2014-12-04T13:14:32Z</time>
      </trkpt>
      <trkpt lat="44.22998" lon="0.71574">
        <ele>136.6446533</ele>
        <time>2014-12-04T13:14:37Z</time>
      </trkpt>
      <trkpt lat="44.22997" lon="0.71577">
        <ele>134.7219238</ele>
        <time>2014-12-04T13:14:41Z</time>
      </trkpt>
      <trkpt lat="44.22997" lon="0.7159">
        <ele>131.3572998</ele>
        <time>2014-12-04T13:14:55Z</time>
      </trkpt>
      <trkpt lat="44.22997" lon="0.7161">
        <ele>128.4733887</ele>
        <time>2014-12-04T13:15:08Z</time>
      </trkpt>
      <trkpt lat="44.22998" lon="0.71614">
        <ele>127.5119629</ele>
        <time>2014-12-04T13:15:10Z</time>
      </trkpt>
      <trkpt lat="44.23003" lon="0.71621">
        <ele>124.1473389</ele>
        <time>2014-12-04T13:15:16Z</time>
      </trkpt>
      <trkpt lat="44.23005" lon="0.71628">
        <ele>123.666748</ele>
        <time>2014-12-04T13:15:20Z</time>
      </trkpt>
      <trkpt lat="44.23008" lon="0.71636">
        <ele>122.2247314</ele>
        <time>2014-12-04T13:15:26Z</time>
      </trkpt>
      <trkpt lat="44.23014" lon="0.71656">
        <ele>117.4182129</ele>
        <time>2014-12-04T13:15:40Z</time>
      </trkpt>
      <trkpt lat="44.23013" lon="0.7169">
        <ele>116.4567871</ele>
        <time>2014-12-04T13:16:00Z</time>
      </trkpt>
      <trkpt lat="44.23008" lon="0.71718">
        <ele>115.4956055</ele>
        <time>2014-12-04T13:16:17Z</time>
      </trkpt>
      <trkpt lat="44.22988" lon="0.71748">
        <ele>113.572998</ele>
        <time>2014-12-04T13:16:42Z</time>
      </trkpt>
      <trkpt lat="44.22964" lon="0.71765">
        <ele>112.1309814</ele>
        <time>2014-12-04T13:17:08Z</time>
      </trkpt>
      <trkpt lat="44.22939" lon="0.71782">
        <ele>114.5341797</ele>
        <time>2014-12-04T13:17:32Z</time>
      </trkpt>
      <trkpt lat="44.22915" lon="0.718">
        <ele>117.4182129</ele>
        <time>2014-12-04T13:17:58Z</time>
      </trkpt>
      <trkpt lat="44.22893" lon="0.71817">
        <ele>119.3408203</ele>
        <time>2014-12-04T13:18:23Z</time>
      </trkpt>
      <trkpt lat="44.22875" lon="0.71834">
        <ele>121.2635498</ele>
        <time>2014-12-04T13:18:48Z</time>
      </trkpt>
      <trkpt lat="44.22858" lon="0.7185">
        <ele>123.666748</ele>
        <time>2014-12-04T13:19:12Z</time>
      </trkpt>
      <trkpt lat="44.22839" lon="0.71862">
        <ele>124.1473389</ele>
        <time>2014-12-04T13:19:37Z</time>
      </trkpt>
      <trkpt lat="44.22827" lon="0.7187">
        <ele>125.1087646</ele>
        <time>2014-12-04T13:19:57Z</time>
      </trkpt>
      <trkpt lat="44.22818" lon="0.71877">
        <ele>126.5506592</ele>
        <time>2014-12-04T13:20:11Z</time>
      </trkpt>
      <trkpt lat="44.22807" lon="0.7189">
        <ele>131.3572998</ele>
        <time>2014-12-04T13:20:30Z</time>
      </trkpt>
      <trkpt lat="44.228" lon="0.71913">
        <ele>135.6831055</ele>
        <time>2014-12-04T13:20:52Z</time>
      </trkpt>
      <trkpt lat="44.22791" lon="0.71939">
        <ele>140.4898682</ele>
        <time>2014-12-04T13:21:17Z</time>
      </trkpt>
      <trkpt lat="44.22782" lon="0.71959">
        <ele>142.4124756</ele>
        <time>2014-12-04T13:21:37Z</time>
      </trkpt>
      <trkpt lat="44.22767" lon="0.71973">
        <ele>145.2963867</ele>
        <time>2014-12-04T13:22:02Z</time>
      </trkpt>
      <trkpt lat="44.22755" lon="0.71959">
        <ele>149.1416016</ele>
        <time>2014-12-04T13:22:26Z</time>
      </trkpt>
      <trkpt lat="44.22742" lon="0.71947">
        <ele>153.4676514</ele>
        <time>2014-12-04T13:22:47Z</time>
      </trkpt>
      <trkpt lat="44.22729" lon="0.71942">
        <ele>153.9483643</ele>
        <time>2014-12-04T13:23:04Z</time>
      </trkpt>
      <trkpt lat="44.22728" lon="0.71942">
        <ele>153.9483643</ele>
        <time>2014-12-04T13:23:05Z</time>
      </trkpt>
      <trkpt lat="44.22714" lon="0.71944">
        <ele>155.8709717</ele>
        <time>2014-12-04T13:23:18Z</time>
      </trkpt>
      <trkpt lat="44.22704" lon="0.71957">
        <ele>155.8709717</ele>
        <time>2014-12-04T13:23:37Z</time>
      </trkpt>
      <trkpt lat="44.22702" lon="0.71957">
        <ele>156.8321533</ele>
        <time>2014-12-04T13:24:05Z</time>
      </trkpt>
      <trkpt lat="44.22694" lon="0.71965">
        <ele>156.3515625</ele>
        <time>2014-12-04T13:24:25Z</time>
      </trkpt>
      <trkpt lat="44.22677" lon="0.71984">
        <ele>155.3902588</ele>
        <time>2014-12-04T13:24:48Z</time>
      </trkpt>
      <trkpt lat="44.22659" lon="0.72006">
        <ele>157.3128662</ele>
        <time>2014-12-04T13:25:13Z</time>
      </trkpt>
      <trkpt lat="44.22646" lon="0.72026">
        <ele>158.2741699</ele>
        <time>2014-12-04T13:25:30Z</time>
      </trkpt>
      <trkpt lat="44.22635" lon="0.72053">
        <ele>158.2741699</ele>
        <time>2014-12-04T13:25:50Z</time>
      </trkpt>
      <trkpt lat="44.22633" lon="0.72058">
        <ele>158.7547607</ele>
        <time>2014-12-04T13:25:54Z</time>
      </trkpt>
      <trkpt lat="44.22632" lon="0.72063">
        <ele>158.7547607</ele>
        <time>2014-12-04T13:25:58Z</time>
      </trkpt>
      <trkpt lat="44.22629" lon="0.7207">
        <ele>160.6774902</ele>
        <time>2014-12-04T13:26:13Z</time>
      </trkpt>
      <trkpt lat="44.22621" lon="0.72062">
        <ele>162.1195068</ele>
        <time>2014-12-04T13:26:26Z</time>
      </trkpt>
      <trkpt lat="44.22606" lon="0.72038">
        <ele>161.638916</ele>
        <time>2014-12-04T13:26:48Z</time>
      </trkpt>
      <trkpt lat="44.22596" lon="0.72019">
        <ele>159.7161865</ele>
        <time>2014-12-04T13:27:05Z</time>
      </trkpt>
      <trkpt lat="44.2259" lon="0.7201">
        <ele>159.2354736</ele>
        <time>2014-12-04T13:27:12Z</time>
      </trkpt>
      <trkpt lat="44.2258" lon="0.71985">
        <ele>159.2354736</ele>
        <time>2014-12-04T13:27:33Z</time>
      </trkpt>
      <trkpt lat="44.22568" lon="0.71957">
        <ele>161.638916</ele>
        <time>2014-12-04T13:27:55Z</time>
      </trkpt>
      <trkpt lat="44.22553" lon="0.71937">
        <ele>161.1582031</ele>
        <time>2014-12-04T13:28:16Z</time>
      </trkpt>
      <trkpt lat="44.22539" lon="0.71921">
        <ele>163.0808105</ele>
        <time>2014-12-04T13:28:35Z</time>
      </trkpt>
      <trkpt lat="44.22519" lon="0.71905">
        <ele>163.5615234</ele>
        <time>2014-12-04T13:28:59Z</time>
      </trkpt>
      <trkpt lat="44.22498" lon="0.71893">
        <ele>165.003418</ele>
        <time>2014-12-04T13:29:23Z</time>
      </trkpt>
      <trkpt lat="44.22473" lon="0.71881">
        <ele>167.4067383</ele>
        <time>2014-12-04T13:29:54Z</time>
      </trkpt>
      <trkpt lat="44.22454" lon="0.71879">
        <ele>168.8487549</ele>
        <time>2014-12-04T13:30:16Z</time>
      </trkpt>
      <trkpt lat="44.22436" lon="0.71904">
        <ele>169.8100586</ele>
        <time>2014-12-04T13:30:42Z</time>
      </trkpt>
      <trkpt lat="44.2243" lon="0.71913">
        <ele>169.8100586</ele>
        <time>2014-12-04T13:30:50Z</time>
      </trkpt>
      <trkpt lat="44.22412" lon="0.7194">
        <ele>171.2520752</ele>
        <time>2014-12-04T13:31:17Z</time>
      </trkpt>
      <trkpt lat="44.22396" lon="0.71968">
        <ele>171.2520752</ele>
        <time>2014-12-04T13:31:42Z</time>
      </trkpt>
      <trkpt lat="44.22378" lon="0.71998">
        <ele>171.2520752</ele>
        <time>2014-12-04T13:32:10Z</time>
      </trkpt>
      <trkpt lat="44.22371" lon="0.72011">
        <ele>171.732666</ele>
        <time>2014-12-04T13:32:30Z</time>
      </trkpt>
      <trkpt lat="44.22364" lon="0.72028">
        <ele>171.732666</ele>
        <time>2014-12-04T13:32:46Z</time>
      </trkpt>
      <trkpt lat="44.22363" lon="0.72031">
        <ele>171.732666</ele>
        <time>2014-12-04T13:32:48Z</time>
      </trkpt>
      <trkpt lat="44.22359" lon="0.7204">
        <ele>171.732666</ele>
        <time>2014-12-04T13:32:56Z</time>
      </trkpt>
      <trkpt lat="44.22351" lon="0.7206">
        <ele>170.2906494</ele>
        <time>2014-12-04T13:33:12Z</time>
      </trkpt>
      <trkpt lat="44.22343" lon="0.7208">
        <ele>170.7713623</ele>
        <time>2014-12-04T13:33:29Z</time>
      </trkpt>
      <trkpt lat="44.22332" lon="0.72109">
        <ele>170.7713623</ele>
        <time>2014-12-04T13:33:52Z</time>
      </trkpt>
      <trkpt lat="44.22323" lon="0.72131">
        <ele>171.2520752</ele>
        <time>2014-12-04T13:34:12Z</time>
      </trkpt>
      <trkpt lat="44.22319" lon="0.72143">
        <ele>170.2906494</ele>
        <time>2014-12-04T13:34:28Z</time>
      </trkpt>
      <trkpt lat="44.22306" lon="0.72161">
        <ele>171.2520752</ele>
        <time>2014-12-04T13:34:47Z</time>
      </trkpt>
      <trkpt lat="44.22305" lon="0.72163">
        <ele>171.732666</ele>
        <time>2014-12-04T13:34:49Z</time>
      </trkpt>
      <trkpt lat="44.22289" lon="0.72186">
        <ele>171.2520752</ele>
        <time>2014-12-04T13:35:10Z</time>
      </trkpt>
      <trkpt lat="44.22277" lon="0.72201">
        <ele>171.2520752</ele>
        <time>2014-12-04T13:35:27Z</time>
      </trkpt>
      <trkpt lat="44.22266" lon="0.72208">
        <ele>171.732666</ele>
        <time>2014-12-04T13:35:41Z</time>
      </trkpt>
      <trkpt lat="44.22252" lon="0.72222">
        <ele>172.6939697</ele>
        <time>2014-12-04T13:36:00Z</time>
      </trkpt>
      <trkpt lat="44.22229" lon="0.72242">
        <ele>174.1358643</ele>
        <time>2014-12-04T13:36:27Z</time>
      </trkpt>
      <trkpt lat="44.22208" lon="0.7226">
        <ele>175.5778809</ele>
        <time>2014-12-04T13:36:53Z</time>
      </trkpt>
      <trkpt lat="44.22188" lon="0.72289">
        <ele>175.5778809</ele>
        <time>2014-12-04T13:37:21Z</time>
      </trkpt>
      <trkpt lat="44.22186" lon="0.72291">
        <ele>175.5778809</ele>
        <time>2014-12-04T13:37:23Z</time>
      </trkpt>
      <trkpt lat="44.22183" lon="0.72295">
        <ele>175.09729</ele>
        <time>2014-12-04T13:37:27Z</time>
      </trkpt>
      <trkpt lat="44.22171" lon="0.72319">
        <ele>173.6552734</ele>
        <time>2014-12-04T13:37:47Z</time>
      </trkpt>
      <trkpt lat="44.2217" lon="0.72362">
        <ele>171.2520752</ele>
        <time>2014-12-04T13:38:17Z</time>
      </trkpt>
      <trkpt lat="44.22164" lon="0.72408">
        <ele>169.3294678</ele>
        <time>2014-12-04T13:38:47Z</time>
      </trkpt>
      <trkpt lat="44.2216" lon="0.72438">
        <ele>169.8100586</ele>
        <time>2014-12-04T13:39:09Z</time>
      </trkpt>
      <trkpt lat="44.22149" lon="0.72468">
        <ele>170.2906494</ele>
        <time>2014-12-04T13:39:34Z</time>
      </trkpt>
      <trkpt lat="44.22134" lon="0.72501">
        <ele>170.2906494</ele>
        <time>2014-12-04T13:40:02Z</time>
      </trkpt>
      <trkpt lat="44.22131" lon="0.72512">
        <ele>171.2520752</ele>
        <time>2014-12-04T13:40:11Z</time>
      </trkpt>
      <trkpt lat="44.2213" lon="0.72515">
        <ele>171.2520752</ele>
        <time>2014-12-04T13:40:13Z</time>
      </trkpt>
      <trkpt lat="44.22129" lon="0.72518">
        <ele>170.2906494</ele>
        <time>2014-12-04T13:40:15Z</time>
      </trkpt>
      <trkpt lat="44.22129" lon="0.72521">
        <ele>169.8100586</ele>
        <time>2014-12-04T13:40:17Z</time>
      </trkpt>
      <trkpt lat="44.22123" lon="0.72535">
        <ele>170.7713623</ele>
        <time>2014-12-04T13:40:29Z</time>
      </trkpt>
      <trkpt lat="44.22122" lon="0.72538">
        <ele>171.2520752</ele>
        <time>2014-12-04T13:40:31Z</time>
      </trkpt>
      <trkpt lat="44.22117" lon="0.72559">
        <ele>172.6939697</ele>
        <time>2014-12-04T13:40:48Z</time>
      </trkpt>
      <trkpt lat="44.22113" lon="0.72576">
        <ele>176.0585938</ele>
        <time>2014-12-04T13:41:02Z</time>
      </trkpt>
      <trkpt lat="44.2211" lon="0.7259">
        <ele>174.1358643</ele>
        <time>2014-12-04T13:41:13Z</time>
      </trkpt>
      <trkpt lat="44.22107" lon="0.726">
        <ele>174.6165771</ele>
        <time>2014-12-04T13:41:26Z</time>
      </trkpt>
      <trkpt lat="44.22103" lon="0.72613">
        <ele>175.5778809</ele>
        <time>2014-12-04T13:41:36Z</time>
      </trkpt>
      <trkpt lat="44.221" lon="0.72628">
        <ele>174.6165771</ele>
        <time>2014-12-04T13:41:50Z</time>
      </trkpt>
      <trkpt lat="44.22097" lon="0.72636">
        <ele>173.6552734</ele>
        <time>2014-12-04T13:41:56Z</time>
      </trkpt>
      <trkpt lat="44.22096" lon="0.72642">
        <ele>173.1746826</ele>
        <time>2014-12-04T13:42:00Z</time>
      </trkpt>
      <trkpt lat="44.2209" lon="0.72656">
        <ele>171.2520752</ele>
        <time>2014-12-04T13:42:12Z</time>
      </trkpt>
      <trkpt lat="44.2209" lon="0.72661">
        <ele>170.7713623</ele>
        <time>2014-12-04T13:42:15Z</time>
      </trkpt>
      <trkpt lat="44.22087" lon="0.72682">
        <ele>170.2906494</ele>
        <time>2014-12-04T13:42:31Z</time>
      </trkpt>
      <trkpt lat="44.22083" lon="0.72702">
        <ele>170.2906494</ele>
        <time>2014-12-04T13:42:48Z</time>
      </trkpt>
      <trkpt lat="44.22083" lon="0.72717">
        <ele>172.2132568</ele>
        <time>2014-12-04T13:43:03Z</time>
      </trkpt>
      <trkpt lat="44.22083" lon="0.72727">
        <ele>172.2132568</ele>
        <time>2014-12-04T13:43:10Z</time>
      </trkpt>
      <trkpt lat="44.22076" lon="0.72744">
        <ele>174.1358643</ele>
        <time>2014-12-04T13:43:25Z</time>
      </trkpt>
      <trkpt lat="44.22079" lon="0.72755">
        <ele>177.0200195</ele>
        <time>2014-12-04T13:43:40Z</time>
      </trkpt>
      <trkpt lat="44.22084" lon="0.72776">
        <ele>177.5006104</ele>
        <time>2014-12-04T13:44:00Z</time>
      </trkpt>
      <trkpt lat="44.22084" lon="0.72779">
        <ele>177.5006104</ele>
        <time>2014-12-04T13:44:03Z</time>
      </trkpt>
      <trkpt lat="44.2209" lon="0.7279">
        <ele>175.09729</ele>
        <time>2014-12-04T13:44:15Z</time>
      </trkpt>
      <trkpt lat="44.22094" lon="0.72804">
        <ele>173.1746826</ele>
        <time>2014-12-04T13:44:27Z</time>
      </trkpt>
      <trkpt lat="44.22104" lon="0.72821">
        <ele>170.7713623</ele>
        <time>2014-12-04T13:44:42Z</time>
      </trkpt>
      <trkpt lat="44.22112" lon="0.72844">
        <ele>168.8487549</ele>
        <time>2014-12-04T13:45:01Z</time>
      </trkpt>
      <trkpt lat="44.22117" lon="0.72868">
        <ele>167.8873291</ele>
        <time>2014-12-04T13:45:18Z</time>
      </trkpt>
      <trkpt lat="44.22124" lon="0.72891">
        <ele>167.4067383</ele>
        <time>2014-12-04T13:45:37Z</time>
      </trkpt>
      <trkpt lat="44.22132" lon="0.72915">
        <ele>165.9647217</ele>
        <time>2014-12-04T13:45:55Z</time>
      </trkpt>
      <trkpt lat="44.22134" lon="0.72918">
        <ele>165.4841309</ele>
        <time>2014-12-04T13:45:58Z</time>
      </trkpt>
      <trkpt lat="44.22136" lon="0.72925">
        <ele>166.9260254</ele>
        <time>2014-12-04T13:46:03Z</time>
      </trkpt>
      <trkpt lat="44.22138" lon="0.72936">
        <ele>166.4453125</ele>
        <time>2014-12-04T13:46:13Z</time>
      </trkpt>
      <trkpt lat="44.2214" lon="0.72939">
        <ele>166.9260254</ele>
        <time>2014-12-04T13:46:15Z</time>
      </trkpt>
      <trkpt lat="44.22142" lon="0.72958">
        <ele>172.6939697</ele>
        <time>2014-12-04T13:46:33Z</time>
      </trkpt>
      <trkpt lat="44.22143" lon="0.72962">
        <ele>174.1358643</ele>
        <time>2014-12-04T13:46:36Z</time>
      </trkpt>
      <trkpt lat="44.22146" lon="0.72975">
        <ele>175.09729</ele>
        <time>2014-12-04T13:46:47Z</time>
      </trkpt>
      <trkpt lat="44.22149" lon="0.72996">
        <ele>177.9812012</ele>
        <time>2014-12-04T13:47:02Z</time>
      </trkpt>
      <trkpt lat="44.22151" lon="0.7301">
        <ele>175.5778809</ele>
        <time>2014-12-04T13:47:19Z</time>
      </trkpt>
      <trkpt lat="44.22151" lon="0.73014">
        <ele>176.0585938</ele>
        <time>2014-12-04T13:47:23Z</time>
      </trkpt>
      <trkpt lat="44.22166" lon="0.73026">
        <ele>172.6939697</ele>
        <time>2014-12-04T13:47:42Z</time>
      </trkpt>
      <trkpt lat="44.22178" lon="0.73031">
        <ele>173.1746826</ele>
        <time>2014-12-04T13:47:56Z</time>
      </trkpt>
      <trkpt lat="44.22184" lon="0.73035">
        <ele>174.1358643</ele>
        <time>2014-12-04T13:48:02Z</time>
      </trkpt>
      <trkpt lat="44.22202" lon="0.73041">
        <ele>168.8487549</ele>
        <time>2014-12-04T13:48:21Z</time>
      </trkpt>
      <trkpt lat="44.22214" lon="0.73048">
        <ele>165.4841309</ele>
        <time>2014-12-04T13:48:37Z</time>
      </trkpt>
      <trkpt lat="44.22228" lon="0.73057">
        <ele>164.0421143</ele>
        <time>2014-12-04T13:48:52Z</time>
      </trkpt>
      <trkpt lat="44.22244" lon="0.73064">
        <ele>163.0808105</ele>
        <time>2014-12-04T13:49:08Z</time>
      </trkpt>
      <trkpt lat="44.22261" lon="0.73062">
        <ele>162.1195068</ele>
        <time>2014-12-04T13:49:24Z</time>
      </trkpt>
      <trkpt lat="44.22286" lon="0.73052">
        <ele>157.7935791</ele>
        <time>2014-12-04T13:49:51Z</time>
      </trkpt>
      <trkpt lat="44.22313" lon="0.73052">
        <ele>155.3902588</ele>
        <time>2014-12-04T13:50:18Z</time>
      </trkpt>
      <trkpt lat="44.2234" lon="0.73057">
        <ele>155.3902588</ele>
        <time>2014-12-04T13:50:45Z</time>
      </trkpt>
      <trkpt lat="44.22366" lon="0.7306">
        <ele>154.9095459</ele>
        <time>2014-12-04T13:51:10Z</time>
      </trkpt>
      <trkpt lat="44.22377" lon="0.73061">
        <ele>155.3902588</ele>
        <time>2014-12-04T13:51:21Z</time>
      </trkpt>
      <trkpt lat="44.22382" lon="0.7306">
        <ele>155.8709717</ele>
        <time>2014-12-04T13:51:26Z</time>
      </trkpt>
      <trkpt lat="44.22418" lon="0.73063">
        <ele>156.3515625</ele>
        <time>2014-12-04T13:52:02Z</time>
      </trkpt>
      <trkpt lat="44.22433" lon="0.73062">
        <ele>156.3515625</ele>
        <time>2014-12-04T13:52:18Z</time>
      </trkpt>
      <trkpt lat="44.22435" lon="0.73063">
        <ele>156.3515625</ele>
        <time>2014-12-04T13:52:20Z</time>
      </trkpt>
      <trkpt lat="44.22461" lon="0.7306">
        <ele>156.8321533</ele>
        <time>2014-12-04T13:52:46Z</time>
      </trkpt>
      <trkpt lat="44.22483" lon="0.73056">
        <ele>156.8321533</ele>
        <time>2014-12-04T13:53:10Z</time>
      </trkpt>
      <trkpt lat="44.22505" lon="0.73053">
        <ele>158.2741699</ele>
        <time>2014-12-04T13:53:33Z</time>
      </trkpt>
      <trkpt lat="44.22534" lon="0.73043">
        <ele>159.7161865</ele>
        <time>2014-12-04T13:54:03Z</time>
      </trkpt>
      <trkpt lat="44.22554" lon="0.73031">
        <ele>161.1582031</ele>
        <time>2014-12-04T13:54:27Z</time>
      </trkpt>
      <trkpt lat="44.22574" lon="0.73022">
        <ele>160.6774902</ele>
        <time>2014-12-04T13:54:47Z</time>
      </trkpt>
      <trkpt lat="44.22598" lon="0.73016">
        <ele>162.6000977</ele>
        <time>2014-12-04T13:55:14Z</time>
      </trkpt>
      <trkpt lat="44.2261" lon="0.73014">
        <ele>163.0808105</ele>
        <time>2014-12-04T13:55:33Z</time>
      </trkpt>
      <trkpt lat="44.22624" lon="0.7302">
        <ele>163.5615234</ele>
        <time>2014-12-04T13:55:51Z</time>
      </trkpt>
      <trkpt lat="44.22625" lon="0.7302">
        <ele>164.0421143</ele>
        <time>2014-12-04T13:55:52Z</time>
      </trkpt>
      <trkpt lat="44.22635" lon="0.73022">
        <ele>165.4841309</ele>
        <time>2014-12-04T13:56:07Z</time>
      </trkpt>
      <trkpt lat="44.22652" lon="0.73032">
        <ele>165.9647217</ele>
        <time>2014-12-04T13:56:26Z</time>
      </trkpt>
      <trkpt lat="44.22671" lon="0.73049">
        <ele>167.4067383</ele>
        <time>2014-12-04T13:56:46Z</time>
      </trkpt>
      <trkpt lat="44.22688" lon="0.73063">
        <ele>167.4067383</ele>
        <time>2014-12-04T13:57:07Z</time>
      </trkpt>
      <trkpt lat="44.22712" lon="0.73087">
        <ele>165.9647217</ele>
        <time>2014-12-04T13:57:35Z</time>
      </trkpt>
      <trkpt lat="44.22733" lon="0.73112">
        <ele>166.4453125</ele>
        <time>2014-12-04T13:58:02Z</time>
      </trkpt>
      <trkpt lat="44.22746" lon="0.73133">
        <ele>165.9647217</ele>
        <time>2014-12-04T13:58:23Z</time>
      </trkpt>
      <trkpt lat="44.22756" lon="0.73149">
        <ele>166.9260254</ele>
        <time>2014-12-04T13:58:39Z</time>
      </trkpt>
      <trkpt lat="44.22773" lon="0.73173">
        <ele>167.8873291</ele>
        <time>2014-12-04T13:59:02Z</time>
      </trkpt>
      <trkpt lat="44.22793" lon="0.73187">
        <ele>169.8100586</ele>
        <time>2014-12-04T13:59:23Z</time>
      </trkpt>
      <trkpt lat="44.22807" lon="0.73195">
        <ele>169.3294678</ele>
        <time>2014-12-04T13:59:42Z</time>
      </trkpt>
      <trkpt lat="44.22828" lon="0.73206">
        <ele>169.3294678</ele>
        <time>2014-12-04T14:00:01Z</time>
      </trkpt>
      <trkpt lat="44.22834" lon="0.73208">
        <ele>168.8487549</ele>
        <time>2014-12-04T14:00:07Z</time>
      </trkpt>
      <trkpt lat="44.22848" lon="0.73207">
        <ele>169.8100586</ele>
        <time>2014-12-04T14:00:23Z</time>
      </trkpt>
      <trkpt lat="44.2285" lon="0.73204">
        <ele>169.8100586</ele>
        <time>2014-12-04T14:00:42Z</time>
      </trkpt>
      <trkpt lat="44.22861" lon="0.73199">
        <ele>170.2906494</ele>
        <time>2014-12-04T14:01:38Z</time>
      </trkpt>
      <trkpt lat="44.22888" lon="0.73181">
        <ele>172.6939697</ele>
        <time>2014-12-04T14:02:03Z</time>
      </trkpt>
      <trkpt lat="44.22896" lon="0.73175">
        <ele>172.6939697</ele>
        <time>2014-12-04T14:02:13Z</time>
      </trkpt>
      <trkpt lat="44.22898" lon="0.73173">
        <ele>173.1746826</ele>
        <time>2014-12-04T14:02:17Z</time>
      </trkpt>
      <trkpt lat="44.22901" lon="0.73171">
        <ele>174.6165771</ele>
        <time>2014-12-04T14:02:20Z</time>
      </trkpt>
      <trkpt lat="44.22913" lon="0.73158">
        <ele>176.0585938</ele>
        <time>2014-12-04T14:02:35Z</time>
      </trkpt>
      <trkpt lat="44.22929" lon="0.73144">
        <ele>174.6165771</ele>
        <time>2014-12-04T14:02:54Z</time>
      </trkpt>
      <trkpt lat="44.22937" lon="0.73144">
        <ele>175.5778809</ele>
        <time>2014-12-04T14:03:10Z</time>
      </trkpt>
      <trkpt lat="44.22939" lon="0.73158">
        <ele>175.5778809</ele>
        <time>2014-12-04T14:03:27Z</time>
      </trkpt>
      <trkpt lat="44.2294" lon="0.73173">
        <ele>175.5778809</ele>
        <time>2014-12-04T14:03:38Z</time>
      </trkpt>
      <trkpt lat="44.22943" lon="0.73196">
        <ele>172.2132568</ele>
        <time>2014-12-04T14:03:56Z</time>
      </trkpt>
      <trkpt lat="44.22947" lon="0.73223">
        <ele>172.6939697</ele>
        <time>2014-12-04T14:04:15Z</time>
      </trkpt>
      <trkpt lat="44.22947" lon="0.73243">
        <ele>171.2520752</ele>
        <time>2014-12-04T14:04:29Z</time>
      </trkpt>
      <trkpt lat="44.22949" lon="0.73263">
        <ele>173.6552734</ele>
        <time>2014-12-04T14:04:42Z</time>
      </trkpt>
      <trkpt lat="44.22949" lon="0.73268">
        <ele>174.1358643</ele>
        <time>2014-12-04T14:04:46Z</time>
      </trkpt>
      <trkpt lat="44.22951" lon="0.73277">
        <ele>175.5778809</ele>
        <time>2014-12-04T14:04:51Z</time>
      </trkpt>
      <trkpt lat="44.22952" lon="0.7329">
        <ele>177.0200195</ele>
        <time>2014-12-04T14:05:02Z</time>
      </trkpt>
      <trkpt lat="44.22951" lon="0.7331">
        <ele>177.5006104</ele>
        <time>2014-12-04T14:05:14Z</time>
      </trkpt>
      <trkpt lat="44.2295" lon="0.73336">
        <ele>177.0200195</ele>
        <time>2014-12-04T14:05:34Z</time>
      </trkpt>
      <trkpt lat="44.22949" lon="0.73358">
        <ele>177.5006104</ele>
        <time>2014-12-04T14:05:52Z</time>
      </trkpt>
      <trkpt lat="44.22946" lon="0.73394">
        <ele>179.4232178</ele>
        <time>2014-12-04T14:06:16Z</time>
      </trkpt>
      <trkpt lat="44.22943" lon="0.7342">
        <ele>178.942627</ele>
        <time>2014-12-04T14:06:34Z</time>
      </trkpt>
      <trkpt lat="44.2294" lon="0.73453">
        <ele>178.4619141</ele>
        <time>2014-12-04T14:06:54Z</time>
      </trkpt>
      <trkpt lat="44.22938" lon="0.73475">
        <ele>177.9812012</ele>
        <time>2014-12-04T14:07:09Z</time>
      </trkpt>
      <trkpt lat="44.2294" lon="0.73493">
        <ele>177.5006104</ele>
        <time>2014-12-04T14:07:21Z</time>
      </trkpt>
      <trkpt lat="44.22941" lon="0.73514">
        <ele>178.4619141</ele>
        <time>2014-12-04T14:07:34Z</time>
      </trkpt>
      <trkpt lat="44.22944" lon="0.73539">
        <ele>178.942627</ele>
        <time>2014-12-04T14:07:54Z</time>
      </trkpt>
      <trkpt lat="44.22944" lon="0.73546">
        <ele>178.4619141</ele>
        <time>2014-12-04T14:08:00Z</time>
      </trkpt>
      <trkpt lat="44.22943" lon="0.73551">
        <ele>178.4619141</ele>
        <time>2014-12-04T14:08:04Z</time>
      </trkpt>
      <trkpt lat="44.22949" lon="0.73586">
        <ele>179.4232178</ele>
        <time>2014-12-04T14:08:29Z</time>
      </trkpt>
      <trkpt lat="44.22955" lon="0.73619">
        <ele>177.5006104</ele>
        <time>2014-12-04T14:08:52Z</time>
      </trkpt>
      <trkpt lat="44.22963" lon="0.7365">
        <ele>176.5393066</ele>
        <time>2014-12-04T14:09:14Z</time>
      </trkpt>
      <trkpt lat="44.22964" lon="0.73658">
        <ele>176.0585938</ele>
        <time>2014-12-04T14:09:20Z</time>
      </trkpt>
      <trkpt lat="44.22967" lon="0.73663">
        <ele>175.5778809</ele>
        <time>2014-12-04T14:09:24Z</time>
      </trkpt>
      <trkpt lat="44.22985" lon="0.73689">
        <ele>174.6165771</ele>
        <time>2014-12-04T14:09:50Z</time>
      </trkpt>
      <trkpt lat="44.22999" lon="0.73724">
        <ele>174.6165771</ele>
        <time>2014-12-04T14:10:17Z</time>
      </trkpt>
      <trkpt lat="44.23004" lon="0.73732">
        <ele>174.1358643</ele>
        <time>2014-12-04T14:10:25Z</time>
      </trkpt>
      <trkpt lat="44.23008" lon="0.73745">
        <ele>173.6552734</ele>
        <time>2014-12-04T14:10:45Z</time>
      </trkpt>
      <trkpt lat="44.23011" lon="0.73754">
        <ele>173.1746826</ele>
        <time>2014-12-04T14:11:05Z</time>
      </trkpt>
      <trkpt lat="44.23019" lon="0.73779">
        <ele>173.6552734</ele>
        <time>2014-12-04T14:11:25Z</time>
      </trkpt>
      <trkpt lat="44.23022" lon="0.73784">
        <ele>173.1746826</ele>
        <time>2014-12-04T14:11:33Z</time>
      </trkpt>
      <trkpt lat="44.23034" lon="0.73822">
        <ele>174.6165771</ele>
        <time>2014-12-04T14:12:01Z</time>
      </trkpt>
      <trkpt lat="44.23045" lon="0.73855">
        <ele>176.5393066</ele>
        <time>2014-12-04T14:12:29Z</time>
      </trkpt>
      <trkpt lat="44.23049" lon="0.73876">
        <ele>176.5393066</ele>
        <time>2014-12-04T14:12:47Z</time>
      </trkpt>
      <trkpt lat="44.23049" lon="0.73876">
        <ele>177.0200195</ele>
        <time>2014-12-04T14:13:23Z</time>
      </trkpt>
      <trkpt lat="44.23048" lon="0.73875">
        <ele>177.9812012</ele>
        <time>2014-12-04T14:14:11Z</time>
      </trkpt>
      <trkpt lat="44.23047" lon="0.73885">
        <ele>177.5006104</ele>
        <time>2014-12-04T14:14:56Z</time>
      </trkpt>
      <trkpt lat="44.23039" lon="0.73922">
        <ele>177.9812012</ele>
        <time>2014-12-04T14:15:27Z</time>
      </trkpt>
      <trkpt lat="44.23038" lon="0.73925">
        <ele>177.5006104</ele>
        <time>2014-12-04T14:15:29Z</time>
      </trkpt>
      <trkpt lat="44.23024" lon="0.73965">
        <ele>177.0200195</ele>
        <time>2014-12-04T14:16:01Z</time>
      </trkpt>
      <trkpt lat="44.23015" lon="0.73993">
        <ele>177.0200195</ele>
        <time>2014-12-04T14:16:24Z</time>
      </trkpt>
      <trkpt lat="44.23006" lon="0.74014">
        <ele>176.5393066</ele>
        <time>2014-12-04T14:16:45Z</time>
      </trkpt>
      <trkpt lat="44.22994" lon="0.74034">
        <ele>174.6165771</ele>
        <time>2014-12-04T14:17:04Z</time>
      </trkpt>
      <trkpt lat="44.22992" lon="0.74037">
        <ele>173.6552734</ele>
        <time>2014-12-04T14:17:07Z</time>
      </trkpt>
      <trkpt lat="44.22982" lon="0.74054">
        <ele>175.5778809</ele>
        <time>2014-12-04T14:17:21Z</time>
      </trkpt>
      <trkpt lat="44.2297" lon="0.74072">
        <ele>174.1358643</ele>
        <time>2014-12-04T14:17:39Z</time>
      </trkpt>
      <trkpt lat="44.22954" lon="0.74093">
        <ele>174.1358643</ele>
        <time>2014-12-04T14:18:00Z</time>
      </trkpt>
      <trkpt lat="44.22935" lon="0.74116">
        <ele>172.2132568</ele>
        <time>2014-12-04T14:18:25Z</time>
      </trkpt>
      <trkpt lat="44.22909" lon="0.74132">
        <ele>167.8873291</ele>
        <time>2014-12-04T14:18:57Z</time>
      </trkpt>
      <trkpt lat="44.22908" lon="0.74132">
        <ele>167.8873291</ele>
        <time>2014-12-04T14:18:58Z</time>
      </trkpt>
      <trkpt lat="44.22886" lon="0.74136">
        <ele>165.003418</ele>
        <time>2014-12-04T14:19:20Z</time>
      </trkpt>
      <trkpt lat="44.22861" lon="0.74148">
        <ele>162.1195068</ele>
        <time>2014-12-04T14:19:48Z</time>
      </trkpt>
      <trkpt lat="44.22851" lon="0.74162">
        <ele>161.638916</ele>
        <time>2014-12-04T14:20:04Z</time>
      </trkpt>
      <trkpt lat="44.2284" lon="0.74185">
        <ele>162.6000977</ele>
        <time>2014-12-04T14:20:23Z</time>
      </trkpt>
      <trkpt lat="44.22833" lon="0.74205">
        <ele>157.7935791</ele>
        <time>2014-12-04T14:20:40Z</time>
      </trkpt>
      <trkpt lat="44.2283" lon="0.74225">
        <ele>156.3515625</ele>
        <time>2014-12-04T14:20:55Z</time>
      </trkpt>
      <trkpt lat="44.22825" lon="0.74245">
        <ele>158.7547607</ele>
        <time>2014-12-04T14:21:11Z</time>
      </trkpt>
      <trkpt lat="44.22824" lon="0.74253">
        <ele>157.3128662</ele>
        <time>2014-12-04T14:21:30Z</time>
      </trkpt>
      <trkpt lat="44.22823" lon="0.74257">
        <ele>156.8321533</ele>
        <time>2014-12-04T14:22:11Z</time>
      </trkpt>
      <trkpt lat="44.22816" lon="0.74273">
        <ele>156.3515625</ele>
        <time>2014-12-04T14:22:41Z</time>
      </trkpt>
      <trkpt lat="44.22801" lon="0.74304">
        <ele>156.3515625</ele>
        <time>2014-12-04T14:23:11Z</time>
      </trkpt>
      <trkpt lat="44.22788" lon="0.74334">
        <ele>154.9095459</ele>
        <time>2014-12-04T14:23:36Z</time>
      </trkpt>
      <trkpt lat="44.22772" lon="0.74354">
        <ele>155.8709717</ele>
        <time>2014-12-04T14:24:00Z</time>
      </trkpt>
      <trkpt lat="44.22753" lon="0.74368">
        <ele>154.9095459</ele>
        <time>2014-12-04T14:24:24Z</time>
      </trkpt>
      <trkpt lat="44.22734" lon="0.74387">
        <ele>155.3902588</ele>
        <time>2014-12-04T14:24:53Z</time>
      </trkpt>
      <trkpt lat="44.22722" lon="0.74401">
        <ele>155.8709717</ele>
        <time>2014-12-04T14:25:13Z</time>
      </trkpt>
      <trkpt lat="44.22715" lon="0.74414">
        <ele>155.8709717</ele>
        <time>2014-12-04T14:25:33Z</time>
      </trkpt>
      <trkpt lat="44.22711" lon="0.74426">
        <ele>155.3902588</ele>
        <time>2014-12-04T14:25:43Z</time>
      </trkpt>
      <trkpt lat="44.22702" lon="0.74451">
        <ele>156.8321533</ele>
        <time>2014-12-04T14:26:06Z</time>
      </trkpt>
      <trkpt lat="44.22697" lon="0.7447">
        <ele>157.3128662</ele>
        <time>2014-12-04T14:26:21Z</time>
      </trkpt>
      <trkpt lat="44.22686" lon="0.74487">
        <ele>158.7547607</ele>
        <time>2014-12-04T14:26:39Z</time>
      </trkpt>
      <trkpt lat="44.22668" lon="0.74501">
        <ele>160.1968994</ele>
        <time>2014-12-04T14:27:02Z</time>
      </trkpt>
      <trkpt lat="44.22644" lon="0.74511">
        <ele>158.2741699</ele>
        <time>2014-12-04T14:27:34Z</time>
      </trkpt>
      <trkpt lat="44.22623" lon="0.74517">
        <ele>158.2741699</ele>
        <time>2014-12-04T14:28:06Z</time>
      </trkpt>
      <trkpt lat="44.22603" lon="0.74522">
        <ele>159.7161865</ele>
        <time>2014-12-04T14:28:33Z</time>
      </trkpt>
      <trkpt lat="44.226" lon="0.74533">
        <ele>162.6000977</ele>
        <time>2014-12-04T14:28:46Z</time>
      </trkpt>
      <trkpt lat="44.22603" lon="0.74538">
        <ele>163.0808105</ele>
        <time>2014-12-04T14:28:50Z</time>
      </trkpt>
      <trkpt lat="44.22614" lon="0.74549">
        <ele>164.0421143</ele>
        <time>2014-12-04T14:29:03Z</time>
      </trkpt>
      <trkpt lat="44.22619" lon="0.74555">
        <ele>163.5615234</ele>
        <time>2014-12-04T14:29:10Z</time>
      </trkpt>
      <trkpt lat="44.22632" lon="0.74565">
        <ele>164.5227051</ele>
        <time>2014-12-04T14:29:25Z</time>
      </trkpt>
      <trkpt lat="44.22645" lon="0.74577">
        <ele>165.9647217</ele>
        <time>2014-12-04T14:29:41Z</time>
      </trkpt>
      <trkpt lat="44.22651" lon="0.74584">
        <ele>166.9260254</ele>
        <time>2014-12-04T14:29:49Z</time>
      </trkpt>
      <trkpt lat="44.22665" lon="0.746">
        <ele>168.368042</ele>
        <time>2014-12-04T14:30:06Z</time>
      </trkpt>
      <trkpt lat="44.22666" lon="0.746">
        <ele>168.8487549</ele>
        <time>2014-12-04T14:30:07Z</time>
      </trkpt>
      <trkpt lat="44.2268" lon="0.74609">
        <ele>168.8487549</ele>
        <time>2014-12-04T14:30:20Z</time>
      </trkpt>
      <trkpt lat="44.22681" lon="0.74611">
        <ele>168.8487549</ele>
        <time>2014-12-04T14:30:22Z</time>
      </trkpt>
      <trkpt lat="44.22685" lon="0.74611">
        <ele>169.8100586</ele>
        <time>2014-12-04T14:30:27Z</time>
      </trkpt>
      <trkpt lat="44.22699" lon="0.7463">
        <ele>169.8100586</ele>
        <time>2014-12-04T14:30:44Z</time>
      </trkpt>
      <trkpt lat="44.22716" lon="0.74645">
        <ele>168.8487549</ele>
        <time>2014-12-04T14:31:02Z</time>
      </trkpt>
      <trkpt lat="44.2273" lon="0.74657">
        <ele>167.8873291</ele>
        <time>2014-12-04T14:31:19Z</time>
      </trkpt>
      <trkpt lat="44.22749" lon="0.74668">
        <ele>170.2906494</ele>
        <time>2014-12-04T14:31:39Z</time>
      </trkpt>
      <trkpt lat="44.22765" lon="0.74669">
        <ele>170.7713623</ele>
        <time>2014-12-04T14:31:56Z</time>
      </trkpt>
      <trkpt lat="44.22772" lon="0.74668">
        <ele>170.7713623</ele>
        <time>2014-12-04T14:32:02Z</time>
      </trkpt>
      <trkpt lat="44.22787" lon="0.74675">
        <ele>172.6939697</ele>
        <time>2014-12-04T14:32:16Z</time>
      </trkpt>
      <trkpt lat="44.22803" lon="0.7468">
        <ele>172.6939697</ele>
        <time>2014-12-04T14:32:31Z</time>
      </trkpt>
      <trkpt lat="44.22819" lon="0.74683">
        <ele>171.732666</ele>
        <time>2014-12-04T14:32:48Z</time>
      </trkpt>
      <trkpt lat="44.22826" lon="0.74685">
        <ele>172.2132568</ele>
        <time>2014-12-04T14:32:55Z</time>
      </trkpt>
      <trkpt lat="44.22831" lon="0.74685">
        <ele>172.2132568</ele>
        <time>2014-12-04T14:33:00Z</time>
      </trkpt>
      <trkpt lat="44.22858" lon="0.74687">
        <ele>171.2520752</ele>
        <time>2014-12-04T14:33:26Z</time>
      </trkpt>
      <trkpt lat="44.22864" lon="0.74687">
        <ele>172.2132568</ele>
        <time>2014-12-04T14:33:31Z</time>
      </trkpt>
      <trkpt lat="44.22871" lon="0.74686">
        <ele>172.2132568</ele>
        <time>2014-12-04T14:33:37Z</time>
      </trkpt>
      <trkpt lat="44.22878" lon="0.74686">
        <ele>170.2906494</ele>
        <time>2014-12-04T14:33:44Z</time>
      </trkpt>
      <trkpt lat="44.22896" lon="0.74682">
        <ele>172.2132568</ele>
        <time>2014-12-04T14:33:59Z</time>
      </trkpt>
      <trkpt lat="44.22898" lon="0.74681">
        <ele>171.2520752</ele>
        <time>2014-12-04T14:34:01Z</time>
      </trkpt>
      <trkpt lat="44.22908" lon="0.74677">
        <ele>170.7713623</ele>
        <time>2014-12-04T14:34:13Z</time>
      </trkpt>
      <trkpt lat="44.22915" lon="0.74676">
        <ele>172.2132568</ele>
        <time>2014-12-04T14:34:18Z</time>
      </trkpt>
      <trkpt lat="44.22927" lon="0.7467">
        <ele>170.2906494</ele>
        <time>2014-12-04T14:34:32Z</time>
      </trkpt>
      <trkpt lat="44.22946" lon="0.74666">
        <ele>169.8100586</ele>
        <time>2014-12-04T14:34:48Z</time>
      </trkpt>
      <trkpt lat="44.22961" lon="0.74662">
        <ele>169.8100586</ele>
        <time>2014-12-04T14:35:02Z</time>
      </trkpt>
      <trkpt lat="44.22969" lon="0.74659">
        <ele>169.3294678</ele>
        <time>2014-12-04T14:35:12Z</time>
      </trkpt>
      <trkpt lat="44.22975" lon="0.74661">
        <ele>169.3294678</ele>
        <time>2014-12-04T14:35:15Z</time>
      </trkpt>
      <trkpt lat="44.2299" lon="0.74657">
        <ele>167.8873291</ele>
        <time>2014-12-04T14:35:29Z</time>
      </trkpt>
      <trkpt lat="44.23002" lon="0.74658">
        <ele>166.4453125</ele>
        <time>2014-12-04T14:35:39Z</time>
      </trkpt>
      <trkpt lat="44.23005" lon="0.74658">
        <ele>166.9260254</ele>
        <time>2014-12-04T14:35:41Z</time>
      </trkpt>
      <trkpt lat="44.2302" lon="0.74661">
        <ele>166.4453125</ele>
        <time>2014-12-04T14:35:55Z</time>
      </trkpt>
      <trkpt lat="44.23034" lon="0.74664">
        <ele>166.9260254</ele>
        <time>2014-12-04T14:36:09Z</time>
      </trkpt>
      <trkpt lat="44.23046" lon="0.74663">
        <ele>169.3294678</ele>
        <time>2014-12-04T14:36:21Z</time>
      </trkpt>
      <trkpt lat="44.23058" lon="0.74666">
        <ele>173.6552734</ele>
        <time>2014-12-04T14:36:35Z</time>
      </trkpt>
      <trkpt lat="44.23071" lon="0.74667">
        <ele>173.1746826</ele>
        <time>2014-12-04T14:36:47Z</time>
      </trkpt>
      <trkpt lat="44.23083" lon="0.74669">
        <ele>172.6939697</ele>
        <time>2014-12-04T14:37:02Z</time>
      </trkpt>
      <trkpt lat="44.23094" lon="0.74671">
        <ele>173.1746826</ele>
        <time>2014-12-04T14:37:18Z</time>
      </trkpt>
      <trkpt lat="44.231" lon="0.74672">
        <ele>176.0585938</ele>
        <time>2014-12-04T14:37:37Z</time>
      </trkpt>
      <trkpt lat="44.23101" lon="0.74675">
        <ele>178.4619141</ele>
        <time>2014-12-04T14:37:43Z</time>
      </trkpt>
      <trkpt lat="44.23117" lon="0.74664">
        <ele>178.4619141</ele>
        <time>2014-12-04T14:38:01Z</time>
      </trkpt>
      <trkpt lat="44.23132" lon="0.74646">
        <ele>179.9038086</ele>
        <time>2014-12-04T14:38:22Z</time>
      </trkpt>
      <trkpt lat="44.23144" lon="0.74628">
        <ele>180.8652344</ele>
        <time>2014-12-04T14:38:41Z</time>
      </trkpt>
      <trkpt lat="44.23158" lon="0.74612">
        <ele>179.4232178</ele>
        <time>2014-12-04T14:38:59Z</time>
      </trkpt>
      <trkpt lat="44.23172" lon="0.74594">
        <ele>181.3458252</ele>
        <time>2014-12-04T14:39:18Z</time>
      </trkpt>
      <trkpt lat="44.23188" lon="0.74576">
        <ele>181.3458252</ele>
        <time>2014-12-04T14:39:38Z</time>
      </trkpt>
      <trkpt lat="44.23206" lon="0.7455">
        <ele>180.3845215</ele>
        <time>2014-12-04T14:40:03Z</time>
      </trkpt>
      <trkpt lat="44.23225" lon="0.74522">
        <ele>179.9038086</ele>
        <time>2014-12-04T14:40:30Z</time>
      </trkpt>
      <trkpt lat="44.23245" lon="0.74493">
        <ele>180.8652344</ele>
        <time>2014-12-04T14:40:58Z</time>
      </trkpt>
      <trkpt lat="44.23257" lon="0.74477">
        <ele>179.9038086</ele>
        <time>2014-12-04T14:41:15Z</time>
      </trkpt>
      <trkpt lat="44.23269" lon="0.74459">
        <ele>180.3845215</ele>
        <time>2014-12-04T14:41:32Z</time>
      </trkpt>
      <trkpt lat="44.23278" lon="0.74439">
        <ele>181.3458252</ele>
        <time>2014-12-04T14:41:49Z</time>
      </trkpt>
      <trkpt lat="44.23262" lon="0.74418">
        <ele>179.4232178</ele>
        <time>2014-12-04T14:42:07Z</time>
      </trkpt>
      <trkpt lat="44.23256" lon="0.74404">
        <ele>177.9812012</ele>
        <time>2014-12-04T14:42:19Z</time>
      </trkpt>
      <trkpt lat="44.23261" lon="0.74384">
        <ele>177.0200195</ele>
        <time>2014-12-04T14:42:36Z</time>
      </trkpt>
      <trkpt lat="44.23262" lon="0.74383">
        <ele>176.5393066</ele>
        <time>2014-12-04T14:42:37Z</time>
      </trkpt>
      <trkpt lat="44.23279" lon="0.74368">
        <ele>180.3845215</ele>
        <time>2014-12-04T14:42:57Z</time>
      </trkpt>
      <trkpt lat="44.2329" lon="0.74348">
        <ele>181.826416</ele>
        <time>2014-12-04T14:43:16Z</time>
      </trkpt>
      <trkpt lat="44.2329" lon="0.74346">
        <ele>181.826416</ele>
        <time>2014-12-04T14:43:17Z</time>
      </trkpt>
      <trkpt lat="44.23301" lon="0.74307">
        <ele>180.3845215</ele>
        <time>2014-12-04T14:43:45Z</time>
      </trkpt>
      <trkpt lat="44.2331" lon="0.74271">
        <ele>178.942627</ele>
        <time>2014-12-04T14:44:10Z</time>
      </trkpt>
      <trkpt lat="44.23315" lon="0.74234">
        <ele>173.6552734</ele>
        <time>2014-12-04T14:44:37Z</time>
      </trkpt>
      <trkpt lat="44.23321" lon="0.74205">
        <ele>171.2520752</ele>
        <time>2014-12-04T14:44:58Z</time>
      </trkpt>
      <trkpt lat="44.23331" lon="0.74156">
        <ele>169.8100586</ele>
        <time>2014-12-04T14:45:32Z</time>
      </trkpt>
      <trkpt lat="44.23334" lon="0.74137">
        <ele>168.8487549</ele>
        <time>2014-12-04T14:45:45Z</time>
      </trkpt>
      <trkpt lat="44.23346" lon="0.7411">
        <ele>166.4453125</ele>
        <time>2014-12-04T14:46:07Z</time>
      </trkpt>
      <trkpt lat="44.23372" lon="0.74097">
        <ele>165.9647217</ele>
        <time>2014-12-04T14:46:32Z</time>
      </trkpt>
      <trkpt lat="44.23389" lon="0.74093">
        <ele>164.5227051</ele>
        <time>2014-12-04T14:46:50Z</time>
      </trkpt>
      <trkpt lat="44.23407" lon="0.74091">
        <ele>163.5615234</ele>
        <time>2014-12-04T14:47:08Z</time>
      </trkpt>
      <trkpt lat="44.23413" lon="0.7409">
        <ele>162.6000977</ele>
        <time>2014-12-04T14:47:13Z</time>
      </trkpt>
      <trkpt lat="44.23429" lon="0.74088">
        <ele>162.1195068</ele>
        <time>2014-12-04T14:47:28Z</time>
      </trkpt>
      <trkpt lat="44.23441" lon="0.74088">
        <ele>163.5615234</ele>
        <time>2014-12-04T14:47:41Z</time>
      </trkpt>
      <trkpt lat="44.23466" lon="0.74079">
        <ele>161.638916</ele>
        <time>2014-12-04T14:48:02Z</time>
      </trkpt>
      <trkpt lat="44.23493" lon="0.74069">
        <ele>162.1195068</ele>
        <time>2014-12-04T14:48:26Z</time>
      </trkpt>
      <trkpt lat="44.23526" lon="0.74071">
        <ele>165.003418</ele>
        <time>2014-12-04T14:48:56Z</time>
      </trkpt>
      <trkpt lat="44.23549" lon="0.74071">
        <ele>165.9647217</ele>
        <time>2014-12-04T14:49:15Z</time>
      </trkpt>
      <trkpt lat="44.23571" lon="0.74068">
        <ele>167.8873291</ele>
        <time>2014-12-04T14:49:35Z</time>
      </trkpt>
      <trkpt lat="44.23581" lon="0.74065">
        <ele>166.4453125</ele>
        <time>2014-12-04T14:49:48Z</time>
      </trkpt>
      <trkpt lat="44.23599" lon="0.7406">
        <ele>165.4841309</ele>
        <time>2014-12-04T14:50:07Z</time>
      </trkpt>
      <trkpt lat="44.23623" lon="0.74055">
        <ele>168.368042</ele>
        <time>2014-12-04T14:50:29Z</time>
      </trkpt>
      <trkpt lat="44.23652" lon="0.7405">
        <ele>170.2906494</ele>
        <time>2014-12-04T14:50:57Z</time>
      </trkpt>
      <trkpt lat="44.2368" lon="0.74045">
        <ele>172.6939697</ele>
        <time>2014-12-04T14:51:25Z</time>
      </trkpt>
      <trkpt lat="44.23703" lon="0.74037">
        <ele>175.09729</ele>
        <time>2014-12-04T14:51:49Z</time>
      </trkpt>
      <trkpt lat="44.2371" lon="0.74034">
        <ele>175.5778809</ele>
        <time>2014-12-04T14:51:56Z</time>
      </trkpt>
      <trkpt lat="44.23724" lon="0.74028">
        <ele>174.6165771</ele>
        <time>2014-12-04T14:52:16Z</time>
      </trkpt>
      <trkpt lat="44.23731" lon="0.74026">
        <ele>176.0585938</ele>
        <time>2014-12-04T14:52:28Z</time>
      </trkpt>
      <trkpt lat="44.23742" lon="0.74028">
        <ele>176.0585938</ele>
        <time>2014-12-04T14:52:37Z</time>
      </trkpt>
      <trkpt lat="44.23763" lon="0.74025">
        <ele>173.1746826</ele>
        <time>2014-12-04T14:52:58Z</time>
      </trkpt>
      <trkpt lat="44.23776" lon="0.74023">
        <ele>171.732666</ele>
        <time>2014-12-04T14:53:11Z</time>
      </trkpt>
      <trkpt lat="44.238" lon="0.74017">
        <ele>167.8873291</ele>
        <time>2014-12-04T14:53:33Z</time>
      </trkpt>
      <trkpt lat="44.23831" lon="0.74011">
        <ele>164.0421143</ele>
        <time>2014-12-04T14:54:01Z</time>
      </trkpt>
      <trkpt lat="44.23865" lon="0.74004">
        <ele>160.6774902</ele>
        <time>2014-12-04T14:54:31Z</time>
      </trkpt>
      <trkpt lat="44.239" lon="0.73994">
        <ele>155.8709717</ele>
        <time>2014-12-04T14:55:03Z</time>
      </trkpt>
      <trkpt lat="44.2393" lon="0.7399">
        <ele>153.9483643</ele>
        <time>2014-12-04T14:55:28Z</time>
      </trkpt>
      <trkpt lat="44.23953" lon="0.73981">
        <ele>152.9869385</ele>
        <time>2014-12-04T14:55:49Z</time>
      </trkpt>
      <trkpt lat="44.23973" lon="0.73973">
        <ele>152.0257568</ele>
        <time>2014-12-04T14:56:07Z</time>
      </trkpt>
      <trkpt lat="44.23981" lon="0.73945">
        <ele>149.1416016</ele>
        <time>2014-12-04T14:56:28Z</time>
      </trkpt>
      <trkpt lat="44.23985" lon="0.73929">
        <ele>147.699707</ele>
        <time>2014-12-04T14:56:39Z</time>
      </trkpt>
      <trkpt lat="44.23995" lon="0.73903">
        <ele>144.3352051</ele>
        <time>2014-12-04T14:56:57Z</time>
      </trkpt>
      <trkpt lat="44.24013" lon="0.73894">
        <ele>145.2963867</ele>
        <time>2014-12-04T14:57:16Z</time>
      </trkpt>
      <trkpt lat="44.24018" lon="0.73885">
        <ele>142.8930664</ele>
        <time>2014-12-04T14:57:35Z</time>
      </trkpt>
      <trkpt lat="44.24018" lon="0.73876">
        <ele>141.4510498</ele>
        <time>2014-12-04T14:57:51Z</time>
      </trkpt>
      <trkpt lat="44.24015" lon="0.73864">
        <ele>140.4898682</ele>
        <time>2014-12-04T14:58:09Z</time>
      </trkpt>
      <trkpt lat="44.24017" lon="0.73852">
        <ele>140.970459</ele>
        <time>2014-12-04T14:58:17Z</time>
      </trkpt>
      <trkpt lat="44.24018" lon="0.73841">
        <ele>141.4510498</ele>
        <time>2014-12-04T14:58:25Z</time>
      </trkpt>
      <trkpt lat="44.2402" lon="0.73837">
        <ele>140.970459</ele>
        <time>2014-12-04T14:58:29Z</time>
      </trkpt>
      <trkpt lat="44.2403" lon="0.73819">
        <ele>140.970459</ele>
        <time>2014-12-04T14:58:41Z</time>
      </trkpt>
      <trkpt lat="44.24032" lon="0.73816">
        <ele>141.4510498</ele>
        <time>2014-12-04T14:58:43Z</time>
      </trkpt>
      <trkpt lat="44.24034" lon="0.73811">
        <ele>141.9317627</ele>
        <time>2014-12-04T14:58:47Z</time>
      </trkpt>
      <trkpt lat="44.24038" lon="0.73799">
        <ele>143.3736572</ele>
        <time>2014-12-04T14:58:57Z</time>
      </trkpt>
      <trkpt lat="44.24018" lon="0.73784">
        <ele>146.2578125</ele>
        <time>2014-12-04T14:59:15Z</time>
      </trkpt>
      <trkpt lat="44.24003" lon="0.73769">
        <ele>148.1804199</ele>
        <time>2014-12-04T14:59:34Z</time>
      </trkpt>
      <trkpt lat="44.24002" lon="0.73768">
        <ele>148.6610107</ele>
        <time>2014-12-04T14:59:35Z</time>
      </trkpt>
      <trkpt lat="44.23982" lon="0.73738">
        <ele>146.7384033</ele>
        <time>2014-12-04T15:00:03Z</time>
      </trkpt>
      <trkpt lat="44.2396" lon="0.73715">
        <ele>144.8157959</ele>
        <time>2014-12-04T15:00:29Z</time>
      </trkpt>
      <trkpt lat="44.2395" lon="0.73691">
        <ele>144.3352051</ele>
        <time>2014-12-04T15:00:49Z</time>
      </trkpt>
      <trkpt lat="44.23963" lon="0.73666">
        <ele>143.3736572</ele>
        <time>2014-12-04T15:01:11Z</time>
      </trkpt>
      <trkpt lat="44.23982" lon="0.73642">
        <ele>143.3736572</ele>
        <time>2014-12-04T15:01:34Z</time>
      </trkpt>
      <trkpt lat="44.24005" lon="0.73626">
        <ele>145.2963867</ele>
        <time>2014-12-04T15:01:58Z</time>
      </trkpt>
      <trkpt lat="44.24027" lon="0.73616">
        <ele>145.2963867</ele>
        <time>2014-12-04T15:02:20Z</time>
      </trkpt>
      <trkpt lat="44.2404" lon="0.73608">
        <ele>144.8157959</ele>
        <time>2014-12-04T15:02:33Z</time>
      </trkpt>
      <trkpt lat="44.24048" lon="0.73599">
        <ele>145.2963867</ele>
        <time>2014-12-04T15:02:44Z</time>
      </trkpt>
      <trkpt lat="44.24055" lon="0.73594">
        <ele>145.2963867</ele>
        <time>2014-12-04T15:02:51Z</time>
      </trkpt>
      <trkpt lat="44.24078" lon="0.73577">
        <ele>143.3736572</ele>
        <time>2014-12-04T15:03:15Z</time>
      </trkpt>
      <trkpt lat="44.24093" lon="0.73555">
        <ele>140.970459</ele>
        <time>2014-12-04T15:03:36Z</time>
      </trkpt>
      <trkpt lat="44.24106" lon="0.73527">
        <ele>139.0478516</ele>
        <time>2014-12-04T15:03:58Z</time>
      </trkpt>
      <trkpt lat="44.24107" lon="0.73522">
        <ele>138.5672607</ele>
        <time>2014-12-04T15:04:01Z</time>
      </trkpt>
      <trkpt lat="44.24117" lon="0.73506">
        <ele>135.6831055</ele>
        <time>2014-12-04T15:04:16Z</time>
      </trkpt>
      <trkpt lat="44.24131" lon="0.73478">
        <ele>137.1252441</ele>
        <time>2014-12-04T15:04:37Z</time>
      </trkpt>
      <trkpt lat="44.24138" lon="0.73461">
        <ele>137.605835</ele>
        <time>2014-12-04T15:04:49Z</time>
      </trkpt>
      <trkpt lat="44.24139" lon="0.73453">
        <ele>138.0865479</ele>
        <time>2014-12-04T15:04:54Z</time>
      </trkpt>
      <trkpt lat="44.24142" lon="0.7342">
        <ele>140.970459</ele>
        <time>2014-12-04T15:05:15Z</time>
      </trkpt>
      <trkpt lat="44.24143" lon="0.73416">
        <ele>142.8930664</ele>
        <time>2014-12-04T15:05:19Z</time>
      </trkpt>
      <trkpt lat="44.24143" lon="0.73412">
        <ele>143.3736572</ele>
        <time>2014-12-04T15:05:22Z</time>
      </trkpt>
      <trkpt lat="44.24145" lon="0.73386">
        <ele>143.3736572</ele>
        <time>2014-12-04T15:05:41Z</time>
      </trkpt>
      <trkpt lat="44.24151" lon="0.73364">
        <ele>144.3352051</ele>
        <time>2014-12-04T15:05:59Z</time>
      </trkpt>
      <trkpt lat="44.24152" lon="0.73361">
        <ele>145.2963867</ele>
        <time>2014-12-04T15:06:01Z</time>
      </trkpt>
      <trkpt lat="44.24155" lon="0.73348">
        <ele>144.8157959</ele>
        <time>2014-12-04T15:06:11Z</time>
      </trkpt>
      <trkpt lat="44.24162" lon="0.73321">
        <ele>143.8543701</ele>
        <time>2014-12-04T15:06:33Z</time>
      </trkpt>
      <trkpt lat="44.24163" lon="0.73313">
        <ele>142.8930664</ele>
        <time>2014-12-04T15:06:37Z</time>
      </trkpt>
      <trkpt lat="44.2417" lon="0.73303">
        <ele>145.2963867</ele>
        <time>2014-12-04T15:06:48Z</time>
      </trkpt>
      <trkpt lat="44.24176" lon="0.73284">
        <ele>147.2189941</ele>
        <time>2014-12-04T15:07:05Z</time>
      </trkpt>
      <trkpt lat="44.24184" lon="0.73259">
        <ele>150.5836182</ele>
        <time>2014-12-04T15:07:31Z</time>
      </trkpt>
      <trkpt lat="44.24191" lon="0.73244">
        <ele>153.4676514</ele>
        <time>2014-12-04T15:07:50Z</time>
      </trkpt>
      <trkpt lat="44.24196" lon="0.73228">
        <ele>153.9483643</ele>
        <time>2014-12-04T15:08:10Z</time>
      </trkpt>
      <trkpt lat="44.24192" lon="0.7322">
        <ele>152.9869385</ele>
        <time>2014-12-04T15:08:19Z</time>
      </trkpt>
      <trkpt lat="44.24181" lon="0.73208">
        <ele>153.4676514</ele>
        <time>2014-12-04T15:08:33Z</time>
      </trkpt>
      <trkpt lat="44.24155" lon="0.73198">
        <ele>153.4676514</ele>
        <time>2014-12-04T15:08:59Z</time>
      </trkpt>
      <trkpt lat="44.24134" lon="0.73184">
        <ele>154.4289551</ele>
        <time>2014-12-04T15:09:25Z</time>
      </trkpt>
      <trkpt lat="44.24119" lon="0.73157">
        <ele>154.9095459</ele>
        <time>2014-12-04T15:09:53Z</time>
      </trkpt>
      <trkpt lat="44.24107" lon="0.73137">
        <ele>155.8709717</ele>
        <time>2014-12-04T15:10:14Z</time>
      </trkpt>
      <trkpt lat="44.24098" lon="0.7312">
        <ele>156.8321533</ele>
        <time>2014-12-04T15:10:32Z</time>
      </trkpt>
      <trkpt lat="44.24088" lon="0.731">
        <ele>157.3128662</ele>
        <time>2014-12-04T15:10:50Z</time>
      </trkpt>
      <trkpt lat="44.24078" lon="0.73082">
        <ele>160.1968994</ele>
        <time>2014-12-04T15:11:09Z</time>
      </trkpt>
      <trkpt lat="44.24074" lon="0.73078">
        <ele>161.1582031</ele>
        <time>2014-12-04T15:11:16Z</time>
      </trkpt>
      <trkpt lat="44.24062" lon="0.73071">
        <ele>161.638916</ele>
        <time>2014-12-04T15:11:30Z</time>
      </trkpt>
      <trkpt lat="44.24051" lon="0.73073">
        <ele>163.5615234</ele>
        <time>2014-12-04T15:11:43Z</time>
      </trkpt>
      <trkpt lat="44.24039" lon="0.73072">
        <ele>165.003418</ele>
        <time>2014-12-04T15:11:57Z</time>
      </trkpt>
      <trkpt lat="44.24028" lon="0.73068">
        <ele>165.003418</ele>
        <time>2014-12-04T15:12:09Z</time>
      </trkpt>
      <trkpt lat="44.24022" lon="0.73065">
        <ele>167.4067383</ele>
        <time>2014-12-04T15:12:14Z</time>
      </trkpt>
      <trkpt lat="44.24018" lon="0.73064">
        <ele>169.3294678</ele>
        <time>2014-12-04T15:12:18Z</time>
      </trkpt>
      <trkpt lat="44.24006" lon="0.73062">
        <ele>176.5393066</ele>
        <time>2014-12-04T15:12:33Z</time>
      </trkpt>
      <trkpt lat="44.23996" lon="0.73064">
        <ele>181.3458252</ele>
        <time>2014-12-04T15:12:47Z</time>
      </trkpt>
      <trkpt lat="44.23988" lon="0.73063">
        <ele>184.7105713</ele>
        <time>2014-12-04T15:12:56Z</time>
      </trkpt>
      <trkpt lat="44.23976" lon="0.73065">
        <ele>189.036377</ele>
        <time>2014-12-04T15:13:11Z</time>
      </trkpt>
      <trkpt lat="44.23965" lon="0.73068">
        <ele>193.3623047</ele>
        <time>2014-12-04T15:13:26Z</time>
      </trkpt>
      <trkpt lat="44.23957" lon="0.73068">
        <ele>195.2849121</ele>
        <time>2014-12-04T15:13:37Z</time>
      </trkpt>
      <trkpt lat="44.23943" lon="0.73063">
        <ele>197.2075195</ele>
        <time>2014-12-04T15:13:50Z</time>
      </trkpt>
      <trkpt lat="44.23938" lon="0.73057">
        <ele>195.2849121</ele>
        <time>2014-12-04T15:14:01Z</time>
      </trkpt>
      <trkpt lat="44.23928" lon="0.73049">
        <ele>192.401123</ele>
        <time>2014-12-04T15:14:13Z</time>
      </trkpt>
      <trkpt lat="44.23917" lon="0.73044">
        <ele>186.1524658</ele>
        <time>2014-12-04T15:14:31Z</time>
      </trkpt>
      <trkpt lat="44.23916" lon="0.73045">
        <ele>185.6717529</ele>
        <time>2014-12-04T15:14:51Z</time>
      </trkpt>
      <trkpt lat="44.23904" lon="0.73042">
        <ele>187.5943604</ele>
        <time>2014-12-04T15:15:57Z</time>
      </trkpt>
      <trkpt lat="44.23896" lon="0.73033">
        <ele>187.1137695</ele>
        <time>2014-12-04T15:16:16Z</time>
      </trkpt>
      <trkpt lat="44.23874" lon="0.73026">
        <ele>189.036377</ele>
        <time>2014-12-04T15:16:34Z</time>
      </trkpt>
      <trkpt lat="44.23847" lon="0.73019">
        <ele>188.0750732</ele>
        <time>2014-12-04T15:16:59Z</time>
      </trkpt>
      <trkpt lat="44.2384" lon="0.73017">
        <ele>185.1911621</ele>
        <time>2014-12-04T15:17:13Z</time>
      </trkpt>
      <trkpt lat="44.23837" lon="0.73012">
        <ele>184.7105713</ele>
        <time>2014-12-04T15:17:20Z</time>
      </trkpt>
      <trkpt lat="44.23818" lon="0.72986">
        <ele>183.2684326</ele>
        <time>2014-12-04T15:17:45Z</time>
      </trkpt>
      <trkpt lat="44.23793" lon="0.72954">
        <ele>182.7878418</ele>
        <time>2014-12-04T15:18:14Z</time>
      </trkpt>
      <trkpt lat="44.23781" lon="0.72926">
        <ele>181.826416</ele>
        <time>2014-12-04T15:18:35Z</time>
      </trkpt>
      <trkpt lat="44.23774" lon="0.72891">
        <ele>179.9038086</ele>
        <time>2014-12-04T15:18:59Z</time>
      </trkpt>
      <trkpt lat="44.23768" lon="0.72862">
        <ele>178.942627</ele>
        <time>2014-12-04T15:19:16Z</time>
      </trkpt>
      <trkpt lat="44.23762" lon="0.72829">
        <ele>179.4232178</ele>
        <time>2014-12-04T15:19:35Z</time>
      </trkpt>
      <trkpt lat="44.23754" lon="0.72787">
        <ele>177.5006104</ele>
        <time>2014-12-04T15:20:01Z</time>
      </trkpt>
      <trkpt lat="44.23747" lon="0.72755">
        <ele>176.5393066</ele>
        <time>2014-12-04T15:20:21Z</time>
      </trkpt>
      <trkpt lat="44.23742" lon="0.7273">
        <ele>174.1358643</ele>
        <time>2014-12-04T15:20:38Z</time>
      </trkpt>
      <trkpt lat="44.23733" lon="0.72696">
        <ele>173.6552734</ele>
        <time>2014-12-04T15:20:58Z</time>
      </trkpt>
      <trkpt lat="44.23727" lon="0.72671">
        <ele>173.6552734</ele>
        <time>2014-12-04T15:21:16Z</time>
      </trkpt>
      <trkpt lat="44.23718" lon="0.72642">
        <ele>173.1746826</ele>
        <time>2014-12-04T15:21:36Z</time>
      </trkpt>
      <trkpt lat="44.23714" lon="0.72624">
        <ele>173.1746826</ele>
        <time>2014-12-04T15:21:46Z</time>
      </trkpt>
      <trkpt lat="44.23715" lon="0.7261">
        <ele>172.6939697</ele>
        <time>2014-12-04T15:22:00Z</time>
      </trkpt>
      <trkpt lat="44.23724" lon="0.72604">
        <ele>170.2906494</ele>
        <time>2014-12-04T15:22:10Z</time>
      </trkpt>
      <trkpt lat="44.23727" lon="0.72602">
        <ele>169.8100586</ele>
        <time>2014-12-04T15:22:13Z</time>
      </trkpt>
      <trkpt lat="44.23738" lon="0.72587">
        <ele>168.8487549</ele>
        <time>2014-12-04T15:22:27Z</time>
      </trkpt>
      <trkpt lat="44.2374" lon="0.7258">
        <ele>166.9260254</ele>
        <time>2014-12-04T15:22:31Z</time>
      </trkpt>
      <trkpt lat="44.23741" lon="0.72574">
        <ele>166.9260254</ele>
        <time>2014-12-04T15:22:34Z</time>
      </trkpt>
      <trkpt lat="44.23745" lon="0.72554">
        <ele>171.732666</ele>
        <time>2014-12-04T15:22:49Z</time>
      </trkpt>
      <trkpt lat="44.23751" lon="0.72537">
        <ele>173.6552734</ele>
        <time>2014-12-04T15:23:03Z</time>
      </trkpt>
      <trkpt lat="44.23755" lon="0.72521">
        <ele>174.1358643</ele>
        <time>2014-12-04T15:23:15Z</time>
      </trkpt>
      <trkpt lat="44.23757" lon="0.72505">
        <ele>176.5393066</ele>
        <time>2014-12-04T15:23:24Z</time>
      </trkpt>
      <trkpt lat="44.23764" lon="0.72478">
        <ele>179.4232178</ele>
        <time>2014-12-04T15:23:41Z</time>
      </trkpt>
      <trkpt lat="44.23764" lon="0.72473">
        <ele>180.3845215</ele>
        <time>2014-12-04T15:23:44Z</time>
      </trkpt>
      <trkpt lat="44.23764" lon="0.7247">
        <ele>180.3845215</ele>
        <time>2014-12-04T15:23:46Z</time>
      </trkpt>
      <trkpt lat="44.23766" lon="0.72455">
        <ele>181.826416</ele>
        <time>2014-12-04T15:23:54Z</time>
      </trkpt>
      <trkpt lat="44.23772" lon="0.72432">
        <ele>183.2684326</ele>
        <time>2014-12-04T15:24:08Z</time>
      </trkpt>
      <trkpt lat="44.23778" lon="0.72409">
        <ele>177.5006104</ele>
        <time>2014-12-04T15:24:23Z</time>
      </trkpt>
      <trkpt lat="44.23783" lon="0.72382">
        <ele>174.6165771</ele>
        <time>2014-12-04T15:24:40Z</time>
      </trkpt>
      <trkpt lat="44.23789" lon="0.72353">
        <ele>173.1746826</ele>
        <time>2014-12-04T15:25:01Z</time>
      </trkpt>
      <trkpt lat="44.23795" lon="0.72337">
        <ele>175.09729</ele>
        <time>2014-12-04T15:25:15Z</time>
      </trkpt>
      <trkpt lat="44.23804" lon="0.72313">
        <ele>175.5778809</ele>
        <time>2014-12-04T15:25:33Z</time>
      </trkpt>
      <trkpt lat="44.23807" lon="0.72308">
        <ele>174.6165771</ele>
        <time>2014-12-04T15:25:37Z</time>
      </trkpt>
      <trkpt lat="44.23808" lon="0.72306">
        <ele>174.6165771</ele>
        <time>2014-12-04T15:25:39Z</time>
      </trkpt>
      <trkpt lat="44.23811" lon="0.723">
        <ele>173.6552734</ele>
        <time>2014-12-04T15:25:44Z</time>
      </trkpt>
      <trkpt lat="44.23818" lon="0.72288">
        <ele>171.732666</ele>
        <time>2014-12-04T15:25:52Z</time>
      </trkpt>
      <trkpt lat="44.23828" lon="0.72275">
        <ele>166.9260254</ele>
        <time>2014-12-04T15:26:04Z</time>
      </trkpt>
      <trkpt lat="44.23839" lon="0.72263">
        <ele>164.0421143</ele>
        <time>2014-12-04T15:26:16Z</time>
      </trkpt>
      <trkpt lat="44.23845" lon="0.72257">
        <ele>164.0421143</ele>
        <time>2014-12-04T15:26:22Z</time>
      </trkpt>
      <trkpt lat="44.23847" lon="0.7225">
        <ele>163.5615234</ele>
        <time>2014-12-04T15:26:27Z</time>
      </trkpt>
      <trkpt lat="44.23863" lon="0.72225">
        <ele>162.1195068</ele>
        <time>2014-12-04T15:26:48Z</time>
      </trkpt>
      <trkpt lat="44.23863" lon="0.72224">
        <ele>162.1195068</ele>
        <time>2014-12-04T15:26:49Z</time>
      </trkpt>
      <trkpt lat="44.23869" lon="0.72214">
        <ele>163.5615234</ele>
        <time>2014-12-04T15:26:58Z</time>
      </trkpt>
      <trkpt lat="44.23884" lon="0.72196">
        <ele>167.4067383</ele>
        <time>2014-12-04T15:27:15Z</time>
      </trkpt>
      <trkpt lat="44.2389" lon="0.72185">
        <ele>167.4067383</ele>
        <time>2014-12-04T15:27:24Z</time>
      </trkpt>
      <trkpt lat="44.23902" lon="0.72171">
        <ele>166.9260254</ele>
        <time>2014-12-04T15:27:39Z</time>
      </trkpt>
      <trkpt lat="44.23906" lon="0.72164">
        <ele>167.8873291</ele>
        <time>2014-12-04T15:27:45Z</time>
      </trkpt>
      <trkpt lat="44.23909" lon="0.7215">
        <ele>168.368042</ele>
        <time>2014-12-04T15:27:54Z</time>
      </trkpt>
      <trkpt lat="44.2391" lon="0.72147">
        <ele>168.8487549</ele>
        <time>2014-12-04T15:27:56Z</time>
      </trkpt>
      <trkpt lat="44.23914" lon="0.72139">
        <ele>167.8873291</ele>
        <time>2014-12-04T15:28:02Z</time>
      </trkpt>
      <trkpt lat="44.23918" lon="0.72136">
        <ele>167.4067383</ele>
        <time>2014-12-04T15:28:06Z</time>
      </trkpt>
      <trkpt lat="44.23919" lon="0.72133">
        <ele>166.4453125</ele>
        <time>2014-12-04T15:28:08Z</time>
      </trkpt>
      <trkpt lat="44.23934" lon="0.72114">
        <ele>167.4067383</ele>
        <time>2014-12-04T15:28:26Z</time>
      </trkpt>
      <trkpt lat="44.23946" lon="0.72097">
        <ele>168.8487549</ele>
        <time>2014-12-04T15:28:40Z</time>
      </trkpt>
      <trkpt lat="44.23948" lon="0.72094">
        <ele>168.368042</ele>
        <time>2014-12-04T15:28:43Z</time>
      </trkpt>
      <trkpt lat="44.23956" lon="0.72082">
        <ele>167.4067383</ele>
        <time>2014-12-04T15:28:55Z</time>
      </trkpt>
      <trkpt lat="44.23956" lon="0.72081">
        <ele>167.4067383</ele>
        <time>2014-12-04T15:28:56Z</time>
      </trkpt>
      <trkpt lat="44.23966" lon="0.72071">
        <ele>165.9647217</ele>
        <time>2014-12-04T15:29:09Z</time>
      </trkpt>
      <trkpt lat="44.23971" lon="0.72064">
        <ele>164.5227051</ele>
        <time>2014-12-04T15:29:15Z</time>
      </trkpt>
      <trkpt lat="44.23981" lon="0.72042">
        <ele>164.0421143</ele>
        <time>2014-12-04T15:29:34Z</time>
      </trkpt>
      <trkpt lat="44.23981" lon="0.7204">
        <ele>164.5227051</ele>
        <time>2014-12-04T15:29:35Z</time>
      </trkpt>
      <trkpt lat="44.23968" lon="0.72025">
        <ele>166.4453125</ele>
        <time>2014-12-04T15:29:51Z</time>
      </trkpt>
      <trkpt lat="44.23964" lon="0.72022">
        <ele>166.4453125</ele>
        <time>2014-12-04T15:29:55Z</time>
      </trkpt>
      <trkpt lat="44.23945" lon="0.71999">
        <ele>167.8873291</ele>
        <time>2014-12-04T15:30:19Z</time>
      </trkpt>
      <trkpt lat="44.23927" lon="0.71975">
        <ele>167.8873291</ele>
        <time>2014-12-04T15:30:40Z</time>
      </trkpt>
      <trkpt lat="44.23897" lon="0.7196">
        <ele>171.732666</ele>
        <time>2014-12-04T15:31:06Z</time>
      </trkpt>
      <trkpt lat="44.23876" lon="0.71956">
        <ele>172.6939697</ele>
        <time>2014-12-04T15:31:26Z</time>
      </trkpt>
      <trkpt lat="44.23855" lon="0.71947">
        <ele>173.1746826</ele>
        <time>2014-12-04T15:31:47Z</time>
      </trkpt>
      <trkpt lat="44.23833" lon="0.71919">
        <ele>171.732666</ele>
        <time>2014-12-04T15:32:12Z</time>
      </trkpt>
      <trkpt lat="44.23815" lon="0.71898">
        <ele>170.7713623</ele>
        <time>2014-12-04T15:32:32Z</time>
      </trkpt>
      <trkpt lat="44.23794" lon="0.71867">
        <ele>166.4453125</ele>
        <time>2014-12-04T15:32:59Z</time>
      </trkpt>
      <trkpt lat="44.23769" lon="0.7183">
        <ele>160.6774902</ele>
        <time>2014-12-04T15:33:31Z</time>
      </trkpt>
      <trkpt lat="44.23747" lon="0.71803">
        <ele>157.7935791</ele>
        <time>2014-12-04T15:33:57Z</time>
      </trkpt>
      <trkpt lat="44.23731" lon="0.71775">
        <ele>154.4289551</ele>
        <time>2014-12-04T15:34:20Z</time>
      </trkpt>
      <trkpt lat="44.23709" lon="0.71736">
        <ele>147.699707</ele>
        <time>2014-12-04T15:34:50Z</time>
      </trkpt>
      <trkpt lat="44.23692" lon="0.71703">
        <ele>146.2578125</ele>
        <time>2014-12-04T15:35:14Z</time>
      </trkpt>
      <trkpt lat="44.23679" lon="0.7169">
        <ele>145.2963867</ele>
        <time>2014-12-04T15:35:28Z</time>
      </trkpt>
      <trkpt lat="44.23673" lon="0.71691">
        <ele>145.2963867</ele>
        <time>2014-12-04T15:35:33Z</time>
      </trkpt>
      <trkpt lat="44.2365" lon="0.71703">
        <ele>147.2189941</ele>
        <time>2014-12-04T15:35:54Z</time>
      </trkpt>
      <trkpt lat="44.23619" lon="0.71702">
        <ele>150.1030273</ele>
        <time>2014-12-04T15:36:20Z</time>
      </trkpt>
      <trkpt lat="44.23592" lon="0.71697">
        <ele>152.5063477</ele>
        <time>2014-12-04T15:36:44Z</time>
      </trkpt>
      <trkpt lat="44.23568" lon="0.71694">
        <ele>152.9869385</ele>
        <time>2014-12-04T15:37:04Z</time>
      </trkpt>
      <trkpt lat="44.23529" lon="0.71692">
        <ele>151.5449219</ele>
        <time>2014-12-04T15:37:36Z</time>
      </trkpt>
      <trkpt lat="44.23509" lon="0.7169">
        <ele>152.0257568</ele>
        <time>2014-12-04T15:37:54Z</time>
      </trkpt>
      <trkpt lat="44.2349" lon="0.71687">
        <ele>152.5063477</ele>
        <time>2014-12-04T15:38:10Z</time>
      </trkpt>
      <trkpt lat="44.23467" lon="0.71686">
        <ele>152.5063477</ele>
        <time>2014-12-04T15:38:29Z</time>
      </trkpt>
      <trkpt lat="44.23439" lon="0.71685">
        <ele>149.6223145</ele>
        <time>2014-12-04T15:38:52Z</time>
      </trkpt>
      <trkpt lat="44.23421" lon="0.71682">
        <ele>148.6610107</ele>
        <time>2014-12-04T15:39:07Z</time>
      </trkpt>
      <trkpt lat="44.23397" lon="0.71679">
        <ele>148.6610107</ele>
        <time>2014-12-04T15:39:28Z</time>
      </trkpt>
      <trkpt lat="44.23391" lon="0.71676">
        <ele>149.1416016</ele>
        <time>2014-12-04T15:39:36Z</time>
      </trkpt>
      <trkpt lat="44.23374" lon="0.7167">
        <ele>148.6610107</ele>
        <time>2014-12-04T15:39:52Z</time>
      </trkpt>
      <trkpt lat="44.23354" lon="0.71648">
        <ele>146.7384033</ele>
        <time>2014-12-04T15:40:12Z</time>
      </trkpt>
      <trkpt lat="44.23351" lon="0.7164">
        <ele>146.2578125</ele>
        <time>2014-12-04T15:40:17Z</time>
      </trkpt>
      <trkpt lat="44.23346" lon="0.71632">
        <ele>145.2963867</ele>
        <time>2014-12-04T15:40:23Z</time>
      </trkpt>
      <trkpt lat="44.23339" lon="0.71609">
        <ele>147.2189941</ele>
        <time>2014-12-04T15:40:39Z</time>
      </trkpt>
      <trkpt lat="44.2333" lon="0.71577">
        <ele>148.1804199</ele>
        <time>2014-12-04T15:40:59Z</time>
      </trkpt>
      <trkpt lat="44.23321" lon="0.71562">
        <ele>147.2189941</ele>
        <time>2014-12-04T15:41:12Z</time>
      </trkpt>
      <trkpt lat="44.23311" lon="0.71548">
        <ele>147.2189941</ele>
        <time>2014-12-04T15:41:24Z</time>
      </trkpt>
      <trkpt lat="44.233" lon="0.71532">
        <ele>147.2189941</ele>
        <time>2014-12-04T15:41:40Z</time>
      </trkpt>
      <trkpt lat="44.23289" lon="0.71507">
        <ele>146.7384033</ele>
        <time>2014-12-04T15:41:57Z</time>
      </trkpt>
      <trkpt lat="44.23278" lon="0.7148">
        <ele>145.7770996</ele>
        <time>2014-12-04T15:42:16Z</time>
      </trkpt>
      <trkpt lat="44.23276" lon="0.71477">
        <ele>146.2578125</ele>
        <time>2014-12-04T15:42:19Z</time>
      </trkpt>
      <trkpt lat="44.23262" lon="0.71452">
        <ele>147.2189941</ele>
        <time>2014-12-04T15:42:37Z</time>
      </trkpt>
      <trkpt lat="44.23252" lon="0.71417">
        <ele>146.7384033</ele>
        <time>2014-12-04T15:43:00Z</time>
      </trkpt>
      <trkpt lat="44.23249" lon="0.7141">
        <ele>146.7384033</ele>
        <time>2014-12-04T15:43:05Z</time>
      </trkpt>
      <trkpt lat="44.23241" lon="0.7138">
        <ele>146.2578125</ele>
        <time>2014-12-04T15:43:26Z</time>
      </trkpt>
      <trkpt lat="44.23239" lon="0.71378">
        <ele>146.7384033</ele>
        <time>2014-12-04T15:43:28Z</time>
      </trkpt>
      <trkpt lat="44.23231" lon="0.71379">
        <ele>147.2189941</ele>
        <time>2014-12-04T15:43:34Z</time>
      </trkpt>
      <trkpt lat="44.23199" lon="0.71389">
        <ele>147.699707</ele>
        <time>2014-12-04T15:44:02Z</time>
      </trkpt>
      <trkpt lat="44.23163" lon="0.71396">
        <ele>149.6223145</ele>
        <time>2014-12-04T15:44:35Z</time>
      </trkpt>
      <trkpt lat="44.2313" lon="0.71396">
        <ele>151.064209</ele>
        <time>2014-12-04T15:45:05Z</time>
      </trkpt>
      <trkpt lat="44.23097" lon="0.71401">
        <ele>148.6610107</ele>
        <time>2014-12-04T15:45:35Z</time>
      </trkpt>
      <trkpt lat="44.23091" lon="0.71407">
        <ele>147.699707</ele>
        <time>2014-12-04T15:45:42Z</time>
      </trkpt>
      <trkpt lat="44.23073" lon="0.71419">
        <ele>144.8157959</ele>
        <time>2014-12-04T15:46:01Z</time>
      </trkpt>
      <trkpt lat="44.23054" lon="0.71424">
        <ele>141.4510498</ele>
        <time>2014-12-04T15:46:20Z</time>
      </trkpt>
      <trkpt lat="44.23031" lon="0.71438">
        <ele>138.5672607</ele>
        <time>2014-12-04T15:46:43Z</time>
      </trkpt>
      <trkpt lat="44.23027" lon="0.71438">
        <ele>137.1252441</ele>
        <time>2014-12-04T15:46:48Z</time>
      </trkpt>
      <trkpt lat="44.23024" lon="0.71433">
        <ele>135.6831055</ele>
        <time>2014-12-04T15:46:53Z</time>
      </trkpt>
      <trkpt lat="44.23016" lon="0.71408">
        <ele>132.7993164</ele>
        <time>2014-12-04T15:47:09Z</time>
      </trkpt>
      <trkpt lat="44.23012" lon="0.71384">
        <ele>133.760498</ele>
        <time>2014-12-04T15:47:25Z</time>
      </trkpt>
      <trkpt lat="44.2301" lon="0.71377">
        <ele>134.7219238</ele>
        <time>2014-12-04T15:47:30Z</time>
      </trkpt>
      <trkpt lat="44.23004" lon="0.71349">
        <ele>135.2025146</ele>
        <time>2014-12-04T15:47:46Z</time>
      </trkpt>
      <trkpt lat="44.23" lon="0.71323">
        <ele>132.7993164</ele>
        <time>2014-12-04T15:48:04Z</time>
      </trkpt>
      <trkpt lat="44.22998" lon="0.71304">
        <ele>134.7219238</ele>
        <time>2014-12-04T15:48:19Z</time>
      </trkpt>
      <trkpt lat="44.22996" lon="0.71292">
        <ele>133.760498</ele>
        <time>2014-12-04T15:48:30Z</time>
      </trkpt>
      <trkpt lat="44.22996" lon="0.71287">
        <ele>133.760498</ele>
        <time>2014-12-04T15:48:34Z</time>
      </trkpt>
      <trkpt lat="44.22994" lon="0.71274">
        <ele>133.2799072</ele>
        <time>2014-12-04T15:48:48Z</time>
      </trkpt>
      <trkpt lat="44.22995" lon="0.71255">
        <ele>136.1639404</ele>
        <time>2014-12-04T15:49:05Z</time>
      </trkpt>
      <trkpt lat="44.22997" lon="0.71245">
        <ele>137.605835</ele>
        <time>2014-12-04T15:49:13Z</time>
      </trkpt>
      <trkpt lat="44.23001" lon="0.71238">
        <ele>140.0091553</ele>
        <time>2014-12-04T15:49:22Z</time>
      </trkpt>
    </trkseg>
  </trk>
</gpx>